createdAt,value
2018-02-20T00:00:05.893Z,79.57
2018-02-20T00:02:33.406Z,70.75
2018-02-20T00:05:00.860Z,67.12
2018-02-20T00:07:29.103Z,78.20
2018-02-20T00:09:56.570Z,72.50
2018-02-20T00:12:24.873Z,71.70
2018-02-20T00:14:52.354Z,79.22
2018-02-20T00:17:19.874Z,75.28
2018-02-20T00:19:47.343Z,81.50
2018-02-20T00:22:15.698Z,75.75
2018-02-20T00:24:43.165Z,84.00
2018-02-20T00:27:10.608Z,72.03
2018-02-20T00:29:38.068Z,74.85
2018-02-20T00:32:06.306Z,63.85
2018-02-20T00:34:33.769Z,72.22
2018-02-20T00:37:01.230Z,74.80
2018-02-20T00:39:28.688Z,78.15
2018-02-20T00:41:56.149Z,84.62
2018-02-20T00:44:23.631Z,77.70
2018-02-20T00:46:51.869Z,83.85
2018-02-20T00:49:19.364Z,85.68
2018-02-20T00:51:47.612Z,83.15
2018-02-20T00:54:15.073Z,75.10
2018-02-20T00:56:42.538Z,78.20
2018-02-20T00:59:10.016Z,88.32
2018-02-20T01:01:38.237Z,79.55
2018-02-20T01:04:05.728Z,80.28
2018-02-20T01:06:33.286Z,81.55
2018-02-20T01:09:00.755Z,78.70
2018-02-20T01:11:28.217Z,79.62
2018-02-20T01:13:55.802Z,91.20
2018-02-20T01:16:23.297Z,84.40
2018-02-20T01:18:50.784Z,81.30
2018-02-20T01:21:18.262Z,80.05
2018-02-20T01:23:45.731Z,75.05
2018-02-20T01:26:13.267Z,78.45
2018-02-20T01:28:41.513Z,69.75
2018-02-20T01:31:08.986Z,79.70
2018-02-20T01:33:36.474Z,77.50
2018-02-20T01:36:03.960Z,78.05
2018-02-20T01:38:31.493Z,74.57
2018-02-20T01:40:58.951Z,94.00
2018-02-20T01:43:26.534Z,99.22
2018-02-20T01:45:53.993Z,86.95
2018-02-20T01:48:21.491Z,83.53
2018-02-20T01:51:00.554Z,75.62
2018-02-20T01:53:28.054Z,85.75
2018-02-20T01:55:55.544Z,75.50
2018-02-20T01:58:23.787Z,83.93
2018-02-20T02:00:51.265Z,80.55
2018-02-20T02:03:18.725Z,85.07
2018-02-20T02:05:46.971Z,82.10
2018-02-20T02:08:14.472Z,76.40
2018-02-20T02:10:43.685Z,78.40
2018-02-20T02:13:11.141Z,82.90
2018-02-20T02:15:38.587Z,86.90
2018-02-20T02:18:06.084Z,91.95
2018-02-20T02:20:33.562Z,86.53
2018-02-20T02:23:01.046Z,85.78
2018-02-20T02:25:29.295Z,82.37
2018-02-20T02:27:56.802Z,96.43
2018-02-20T02:30:24.247Z,88.12
2018-02-20T02:32:52.495Z,91.20
2018-02-20T02:35:20.027Z,78.70
2018-02-20T02:37:47.509Z,82.78
2018-02-20T02:40:14.961Z,89.90
2018-02-20T02:42:42.465Z,75.82
2018-02-20T02:45:09.927Z,80.15
2018-02-20T02:47:37.384Z,84.18
2018-02-20T02:50:04.879Z,80.85
2018-02-20T02:52:32.335Z,92.55
2018-02-20T02:54:59.821Z,78.37
2018-02-20T02:57:27.358Z,98.85
2018-02-20T02:59:54.828Z,86.12
2018-02-20T03:02:22.308Z,83.85
2018-02-20T03:04:49.769Z,79.60
2018-02-20T03:07:18.009Z,83.07
2018-02-20T03:09:45.471Z,74.62
2018-02-20T03:12:12.938Z,80.85
2018-02-20T03:14:40.401Z,77.72
2018-02-20T03:17:07.858Z,85.55
2018-02-20T03:19:36.109Z,86.40
2018-02-20T03:22:03.597Z,82.47
2018-02-20T03:24:31.848Z,80.80
2018-02-20T03:26:59.318Z,82.18
2018-02-20T03:29:26.791Z,86.57
2018-02-20T03:31:54.251Z,88.47
2018-02-20T03:34:21.723Z,84.87
2018-02-20T03:36:49.208Z,86.70
2018-02-20T03:39:16.675Z,77.93
2018-02-20T03:41:44.143Z,88.68
2018-02-20T03:44:11.639Z,85.32
2018-02-20T03:46:39.098Z,94.93
2018-02-20T03:49:06.553Z,77.37
2018-02-20T03:51:34.040Z,90.65
2018-02-20T03:54:01.530Z,92.85
2018-02-20T03:56:29.001Z,82.57
2018-02-20T03:58:56.469Z,86.93
2018-02-20T04:01:23.991Z,89.93
2018-02-20T04:03:51.469Z,95.00
2018-02-20T04:06:18.935Z,83.00
2018-02-20T04:08:46.498Z,92.88
2018-02-20T04:11:13.965Z,103.62
2018-02-20T04:13:42.210Z,85.90
2018-02-20T04:16:09.681Z,89.15
2018-02-20T04:18:37.163Z,83.85
2018-02-20T04:21:04.683Z,94.32
2018-02-20T04:23:32.196Z,99.05
2018-02-20T04:26:00.442Z,96.57
2018-02-20T04:28:28.705Z,96.28
2018-02-20T04:30:56.173Z,87.57
2018-02-20T04:33:23.679Z,96.12
2018-02-20T04:35:51.156Z,92.03
2018-02-20T04:38:18.611Z,90.03
2018-02-20T04:40:46.114Z,92.03
2018-02-20T04:43:13.587Z,89.90
2018-02-20T04:45:41.075Z,91.10
2018-02-20T04:48:09.297Z,90.53
2018-02-20T04:50:36.998Z,95.38
2018-02-20T04:53:04.503Z,94.90
2018-02-20T04:55:31.962Z,96.45
2018-02-20T04:57:59.442Z,101.00
2018-02-20T05:00:26.909Z,86.03
2018-02-20T05:02:54.384Z,95.15
2018-02-20T05:05:21.899Z,98.40
2018-02-20T05:07:49.376Z,84.78
2018-02-20T05:10:16.830Z,99.82
2018-02-20T05:12:44.301Z,87.43
2018-02-20T05:15:11.766Z,98.47
2018-02-20T05:17:39.231Z,91.10
2018-02-20T05:20:06.731Z,94.97
2018-02-20T05:22:34.218Z,89.25
2018-02-20T05:25:01.699Z,85.90
2018-02-20T05:27:29.160Z,103.20
2018-02-20T05:29:56.689Z,93.00
2018-02-20T05:32:24.150Z,95.22
2018-02-20T05:34:52.435Z,102.75
2018-02-20T05:37:19.951Z,95.68
2018-02-20T05:39:47.437Z,97.07
2018-02-20T05:42:14.909Z,106.68
2018-02-20T05:44:42.411Z,96.75
2018-02-20T05:47:09.889Z,93.72
2018-02-20T05:49:38.113Z,109.12
2018-02-20T05:52:05.620Z,104.82
2018-02-20T05:54:33.854Z,115.60
2018-02-20T05:57:01.351Z,98.43
2018-02-20T05:59:29.186Z,96.50
2018-02-20T06:01:57.266Z,93.00
2018-02-20T06:04:24.853Z,108.95
2018-02-20T06:06:52.318Z,89.87
2018-02-20T06:09:19.794Z,98.32
2018-02-20T06:11:47.273Z,101.22
2018-02-20T06:14:14.778Z,100.10
2018-02-20T06:16:42.248Z,89.57
2018-02-20T06:19:09.710Z,87.07
2018-02-20T06:21:37.977Z,93.62
2018-02-20T06:24:06.201Z,87.00
2018-02-20T06:26:33.702Z,89.53
2018-02-20T06:29:01.953Z,88.20
2018-02-20T06:31:29.567Z,92.15
2018-02-20T06:33:57.110Z,85.53
2018-02-20T06:36:24.754Z,94.85
2018-02-20T06:38:52.254Z,87.75
2018-02-20T06:41:19.721Z,92.65
2018-02-20T06:43:47.214Z,85.68
2018-02-20T06:46:14.725Z,96.35
2018-02-20T06:48:42.229Z,92.37
2018-02-20T06:51:09.765Z,101.35
2018-02-20T06:53:37.245Z,99.68
2018-02-20T06:56:04.754Z,94.87
2018-02-20T06:58:32.240Z,84.60
2018-02-20T07:00:59.764Z,89.93
2018-02-20T07:03:27.269Z,81.35
2018-02-20T07:05:54.734Z,93.72
2018-02-20T07:08:22.280Z,85.57
2018-02-20T07:10:49.779Z,86.47
2018-02-20T07:13:18.048Z,96.45
2018-02-20T07:15:47.308Z,94.60
2018-02-20T07:18:14.803Z,89.20
2018-02-20T07:20:42.317Z,86.18
2018-02-20T07:23:11.875Z,82.18
2018-02-20T07:25:39.332Z,83.22
2018-02-20T07:28:06.858Z,79.87
2018-02-20T07:30:34.387Z,88.20
2018-02-20T07:33:01.866Z,83.97
2018-02-20T07:35:35.003Z,90.53
2018-02-20T07:38:02.488Z,95.68
2018-02-20T07:40:29.947Z,83.20
2018-02-20T07:42:57.407Z,77.95
2018-02-20T07:45:25.642Z,75.30
2018-02-20T07:47:56.582Z,83.37
2018-02-20T07:50:25.020Z,85.05
2018-02-20T07:52:52.518Z,85.75
2018-02-20T07:55:22.103Z,89.68
2018-02-20T07:57:49.600Z,88.75
2018-02-20T08:00:17.104Z,85.40
2018-02-20T08:02:44.624Z,79.65
2018-02-20T08:05:12.137Z,81.07
2018-02-20T08:07:39.618Z,81.50
2018-02-20T08:10:07.117Z,87.37
2018-02-20T08:12:34.613Z,85.45
2018-02-20T08:15:02.085Z,82.47
2018-02-20T08:17:30.832Z,74.05
2018-02-20T08:19:58.322Z,80.03
2018-02-20T08:22:25.887Z,70.93
2018-02-20T08:24:53.385Z,81.53
2018-02-20T08:27:20.948Z,78.30
2018-02-20T08:29:48.483Z,91.45
2018-02-20T08:32:16.233Z,76.10
2018-02-20T08:34:43.759Z,76.80
2018-02-20T08:37:11.230Z,86.55
2018-02-20T08:39:39.520Z,76.60
2018-02-20T08:42:06.973Z,81.00
2018-02-20T08:44:34.452Z,77.60
2018-02-20T08:47:01.942Z,69.87
2018-02-20T08:49:29.430Z,75.07
2018-02-20T08:51:57.168Z,72.18
2018-02-20T08:54:24.817Z,65.78
2018-02-20T08:56:52.317Z,65.87
2018-02-20T08:59:19.794Z,70.10
2018-02-20T09:01:47.350Z,72.68
2018-02-20T09:04:14.883Z,60.67
2018-02-20T09:06:42.369Z,75.90
2018-02-20T09:09:09.921Z,63.95
2018-02-20T09:11:37.386Z,75.20
2018-02-20T09:14:04.928Z,61.78
2018-02-20T09:16:32.426Z,62.78
2018-02-20T09:18:59.935Z,65.57
2018-02-20T09:21:28.199Z,60.17
2018-02-20T09:23:55.848Z,63.20
2018-02-20T09:26:23.465Z,56.17
2018-02-20T09:28:50.964Z,62.50
2018-02-20T09:31:18.447Z,54.00
2018-02-20T09:33:45.970Z,61.35
2018-02-20T09:36:13.444Z,57.85
2018-02-20T09:38:40.935Z,60.97
2018-02-20T09:41:09.194Z,50.03
2018-02-20T09:43:36.708Z,52.22
2018-02-20T09:46:04.182Z,49.50
2018-02-20T09:48:31.666Z,49.17
2018-02-20T09:50:59.149Z,55.65
2018-02-20T09:53:26.639Z,48.13
2018-02-20T09:55:54.179Z,49.55
2018-02-20T09:58:21.641Z,50.58
2018-02-20T10:00:49.118Z,45.58
2018-02-20T10:03:16.640Z,41.05
2018-02-20T10:05:44.106Z,55.33
2018-02-20T10:08:11.638Z,50.30
2018-02-20T10:10:39.269Z,46.47
2018-02-20T10:13:06.750Z,42.40
2018-02-20T10:15:35.025Z,52.47
2018-02-20T10:18:03.311Z,53.63
2018-02-20T10:20:31.525Z,48.90
2018-02-20T10:22:58.983Z,45.28
2018-02-20T10:25:26.453Z,44.65
2018-02-20T10:27:53.951Z,45.25
2018-02-20T10:30:21.424Z,43.28
2018-02-20T10:32:48.906Z,46.63
2018-02-20T10:35:16.375Z,45.03
2018-02-20T10:37:43.841Z,45.83
2018-02-20T10:40:11.349Z,42.60
2018-02-20T10:42:38.846Z,48.38
2018-02-20T10:45:06.314Z,44.72
2018-02-20T10:47:33.837Z,53.75
2018-02-20T10:50:02.243Z,52.40
2018-02-20T10:52:30.722Z,47.78
2018-02-20T10:54:58.210Z,49.70
2018-02-20T10:57:25.704Z,49.67
2018-02-20T10:59:54.138Z,44.47
2018-02-20T11:02:21.641Z,52.05
2018-02-20T11:04:49.135Z,51.25
2018-02-20T11:07:16.612Z,47.22
2018-02-20T11:09:44.111Z,47.58
2018-02-20T11:12:11.589Z,44.75
2018-02-20T11:14:39.120Z,44.55
2018-02-20T11:17:06.570Z,43.78
2018-02-20T11:19:34.812Z,47.17
2018-02-20T11:22:02.271Z,46.95
2018-02-20T11:24:29.757Z,53.80
2018-02-20T11:26:57.270Z,50.38
2018-02-20T11:29:24.754Z,50.95
2018-02-20T11:31:52.255Z,50.38
2018-02-20T11:34:19.899Z,51.53
2018-02-20T11:36:48.151Z,48.78
2018-02-20T11:39:15.654Z,57.65
2018-02-20T11:41:43.150Z,51.10
2018-02-20T11:44:10.661Z,60.25
2018-02-20T11:46:38.150Z,50.45
2018-02-20T11:49:05.741Z,56.15
2018-02-20T11:51:33.242Z,54.17
2018-02-20T11:54:00.729Z,52.83
2018-02-20T11:56:28.217Z,56.15
2018-02-20T11:58:55.734Z,58.13
2018-02-20T12:01:23.267Z,53.38
2018-02-20T12:03:50.726Z,57.28
2018-02-20T12:06:18.225Z,58.87
2018-02-20T12:08:45.729Z,57.40
2018-02-20T12:11:13.951Z,65.45
2018-02-20T12:13:41.419Z,66.97
2018-02-20T12:16:08.914Z,57.88
2018-02-20T12:18:36.389Z,60.40
2018-02-20T12:21:03.990Z,63.60
2018-02-20T12:23:31.457Z,56.40
2018-02-20T12:25:58.945Z,62.17
2018-02-20T12:28:26.421Z,52.38
2018-02-20T12:30:53.902Z,49.38
2018-02-20T12:33:21.375Z,53.85
2018-02-20T12:35:48.929Z,56.95
2018-02-20T12:38:16.356Z,53.40
2018-02-20T12:40:43.832Z,53.78
2018-02-20T12:43:11.310Z,55.85
2018-02-20T12:45:38.775Z,53.40
2018-02-20T12:48:06.245Z,64.43
2018-02-20T12:50:33.735Z,61.53
2018-02-20T12:53:01.198Z,59.75
2018-02-20T12:55:28.657Z,58.47
2018-02-20T12:57:56.160Z,59.40
2018-02-20T13:00:23.684Z,54.95
2018-02-20T13:02:51.174Z,57.22
2018-02-20T13:05:18.642Z,59.70
2018-02-20T13:07:46.127Z,60.15
2018-02-20T13:10:14.375Z,57.40
2018-02-20T13:12:41.843Z,61.47
2018-02-20T13:15:10.346Z,64.45
2018-02-20T13:17:37.930Z,60.63
2018-02-20T13:20:05.457Z,60.65
2018-02-20T13:22:32.977Z,60.88
2018-02-20T13:25:00.470Z,64.78
2018-02-20T13:27:28.039Z,59.38
2018-02-20T13:29:55.532Z,67.25
2018-02-20T13:32:23.041Z,54.88
2018-02-20T13:34:50.525Z,63.35
2018-02-20T13:37:18.001Z,54.55
2018-02-20T13:39:45.487Z,57.05
2018-02-20T13:42:12.988Z,54.67
2018-02-20T13:44:40.453Z,59.30
2018-02-20T13:47:07.930Z,59.85
2018-02-20T13:49:35.406Z,53.10
2018-02-20T13:52:02.914Z,52.80
2018-02-20T13:54:30.390Z,50.20
2018-02-20T13:56:57.874Z,49.38
2018-02-20T13:59:25.336Z,57.03
2018-02-20T14:01:52.845Z,50.80
2018-02-20T14:04:20.325Z,46.47
2018-02-20T14:06:47.794Z,57.08
2018-02-20T14:09:15.292Z,49.25
2018-02-20T14:11:42.760Z,50.65
2018-02-20T14:14:10.393Z,51.35
2018-02-20T14:16:37.916Z,44.83
2018-02-20T14:19:05.395Z,43.92
2018-02-20T14:21:32.887Z,49.80
2018-02-20T14:24:00.397Z,48.28
2018-02-20T14:26:27.898Z,47.78
2018-02-20T14:28:55.420Z,47.60
2018-02-20T14:31:22.890Z,50.58
2018-02-20T14:33:50.379Z,47.45
2018-02-20T14:36:17.845Z,49.75
2018-02-20T14:38:45.308Z,48.97
2018-02-20T14:41:13.531Z,48.60
2018-02-20T14:43:41.036Z,48.47
2018-02-20T14:46:10.475Z,47.13
2018-02-20T14:48:37.937Z,50.80
2018-02-20T14:51:05.397Z,54.75
2018-02-20T14:53:32.862Z,54.17
2018-02-20T14:56:00.371Z,60.53
2018-02-20T14:58:27.974Z,57.92
2018-02-20T15:00:55.465Z,55.08
2018-02-20T15:03:22.953Z,60.15
2018-02-20T15:05:51.134Z,52.95
2018-02-20T15:08:18.636Z,61.03
2018-02-20T15:10:46.145Z,54.65
2018-02-20T15:13:14.377Z,54.35
2018-02-20T15:15:41.839Z,56.17
2018-02-20T15:18:09.476Z,60.70
2018-02-20T15:20:36.982Z,52.67
2018-02-20T15:23:05.238Z,56.25
2018-02-20T15:25:32.705Z,59.60
2018-02-20T15:28:00.945Z,60.95
2018-02-20T15:30:28.421Z,61.28
2018-02-20T15:32:55.892Z,57.03
2018-02-20T15:35:23.364Z,61.85
2018-02-20T15:37:51.594Z,61.58
2018-02-20T15:40:19.063Z,55.47
2018-02-20T15:42:46.533Z,57.62
2018-02-20T15:45:14.762Z,58.38
2018-02-20T15:47:42.218Z,62.53
2018-02-20T15:50:09.675Z,59.38
2018-02-20T15:52:37.161Z,56.60
2018-02-20T15:55:04.622Z,58.30
2018-02-20T15:57:32.122Z,55.03
2018-02-20T15:59:59.591Z,54.00
2018-02-20T16:02:27.055Z,58.60
2018-02-20T16:04:54.530Z,55.28
2018-02-20T16:07:21.998Z,63.90
2018-02-20T16:09:49.507Z,61.35
2018-02-20T16:12:16.975Z,59.15
2018-02-20T16:14:44.449Z,55.90
2018-02-20T16:17:11.920Z,59.55
2018-02-20T16:19:39.420Z,64.95
2018-02-20T16:22:06.889Z,60.42
2018-02-20T16:24:35.135Z,49.38
2018-02-20T16:27:02.583Z,58.70
2018-02-20T16:29:30.142Z,57.05
2018-02-20T16:31:57.594Z,57.17
2018-02-20T16:34:25.078Z,61.47
2018-02-20T16:36:52.562Z,62.03
2018-02-20T16:39:20.027Z,59.30
2018-02-20T16:41:47.525Z,58.55
2018-02-20T16:44:14.998Z,57.85
2018-02-20T16:46:42.458Z,57.58
2018-02-20T16:49:09.922Z,64.37
2018-02-20T16:51:38.142Z,66.15
2018-02-20T16:54:05.610Z,62.17
2018-02-20T16:56:33.098Z,55.60
2018-02-20T16:59:00.564Z,59.45
2018-02-20T17:01:28.035Z,59.40
2018-02-20T17:03:55.500Z,61.28
2018-02-20T17:06:22.965Z,59.95
2018-02-20T17:08:50.413Z,61.60
2018-02-20T17:11:17.871Z,58.10
2018-02-20T17:13:45.332Z,52.05
2018-02-20T17:16:12.830Z,52.28
2018-02-20T17:18:40.298Z,58.58
2018-02-20T17:21:07.762Z,58.67
2018-02-20T17:23:35.230Z,55.90
2018-02-20T17:26:03.469Z,62.85
2018-02-20T17:28:30.923Z,52.08
2018-02-20T17:30:58.384Z,53.17
2018-02-20T17:33:25.857Z,55.47
2018-02-20T17:35:53.310Z,55.33
2018-02-20T17:38:20.773Z,49.50
2018-02-20T17:40:48.246Z,50.58
2018-02-20T17:43:16.486Z,56.90
2018-02-20T17:45:43.957Z,53.08
2018-02-20T17:48:11.424Z,56.35
2018-02-20T17:50:38.892Z,56.45
2018-02-20T17:53:06.382Z,55.50
2018-02-20T17:55:33.861Z,56.20
2018-02-20T17:58:01.344Z,49.28
2018-02-20T18:00:28.806Z,54.35
2018-02-20T18:02:56.336Z,50.80
2018-02-20T18:05:23.790Z,51.15
2018-02-20T18:07:51.265Z,56.33
2018-02-20T18:10:18.725Z,48.42
2018-02-20T18:12:46.219Z,52.08
2018-02-20T18:15:14.451Z,49.78
2018-02-20T18:17:41.923Z,49.80
2018-02-20T18:20:09.399Z,56.83
2018-02-20T18:22:37.675Z,51.88
2018-02-20T18:25:05.301Z,47.42
2018-02-20T18:27:32.782Z,58.65
2018-02-20T18:30:00.251Z,51.90
2018-02-20T18:32:27.705Z,55.53
2018-02-20T18:34:55.170Z,55.97
2018-02-20T18:37:23.890Z,52.45
2018-02-20T18:39:51.410Z,56.67
2018-02-20T18:42:18.917Z,54.97
2018-02-20T18:44:46.614Z,56.65
2018-02-20T18:47:14.086Z,59.15
2018-02-20T18:49:42.327Z,55.40
2018-02-20T18:52:09.814Z,56.58
2018-02-20T18:54:38.094Z,53.78
2018-02-20T18:57:05.595Z,57.72
2018-02-20T18:59:33.058Z,57.72
2018-02-20T19:02:00.550Z,52.58
2018-02-20T19:04:28.026Z,53.03
2018-02-20T19:06:55.532Z,56.47
2018-02-20T19:09:23.002Z,60.17
2018-02-20T19:11:50.598Z,49.88
2018-02-20T19:14:18.314Z,54.60
2018-02-20T19:16:45.807Z,61.33
2018-02-20T19:19:13.293Z,52.85
2018-02-20T19:21:40.833Z,53.05
2018-02-20T19:24:08.343Z,53.85
2018-02-20T19:26:36.012Z,52.72
2018-02-20T19:29:03.768Z,48.87
2018-02-20T19:31:31.292Z,59.97
2018-02-20T19:33:58.787Z,56.20
2018-02-20T19:36:26.274Z,52.72
2018-02-20T19:38:53.764Z,53.87
2018-02-20T19:41:21.266Z,51.30
2018-02-20T19:43:48.746Z,59.20
2018-02-20T19:46:16.223Z,56.45
2018-02-20T19:48:43.753Z,62.22
2018-02-20T19:51:11.241Z,58.67
2018-02-20T19:53:38.719Z,55.58
2018-02-20T19:56:06.209Z,60.30
2018-02-20T19:58:33.724Z,55.15
2018-02-20T20:01:01.170Z,61.92
2018-02-20T20:03:28.948Z,63.17
2018-02-20T20:05:56.446Z,55.00
2018-02-20T20:08:23.967Z,57.70
2018-02-20T20:10:51.428Z,61.95
2018-02-20T20:13:18.950Z,60.80
2018-02-20T20:15:46.422Z,58.90
2018-02-20T20:18:13.985Z,62.40
2018-02-20T20:20:47.936Z,61.45
2018-02-20T20:23:09.210Z,63.33
2018-02-20T20:25:36.716Z,59.78
2018-02-20T20:28:04.241Z,60.22
2018-02-20T20:30:31.746Z,66.22
2018-02-20T20:32:59.323Z,58.53
2018-02-20T20:35:26.813Z,59.83
2018-02-20T20:37:54.729Z,59.50
2018-02-20T20:40:22.471Z,52.70
2018-02-20T20:42:49.940Z,55.95
2018-02-20T20:45:17.446Z,62.10
2018-02-20T20:47:45.051Z,53.63
2018-02-20T20:50:12.514Z,60.40
2018-02-20T20:52:40.181Z,54.33
2018-02-20T20:55:07.650Z,61.45
2018-02-20T20:57:35.107Z,57.42
2018-02-20T21:00:02.598Z,53.60
2018-02-20T21:02:30.052Z,53.83
2018-02-20T21:04:57.516Z,56.65
2018-02-20T21:07:25.045Z,52.42
2018-02-20T21:09:52.590Z,51.88
2018-02-20T21:12:20.156Z,54.25
2018-02-20T21:14:47.622Z,48.70
2018-02-20T21:17:15.092Z,53.55
2018-02-20T21:19:42.559Z,48.63
2018-02-20T21:22:10.020Z,55.92
2018-02-20T21:24:37.486Z,54.67
2018-02-20T21:27:05.716Z,56.45
2018-02-20T21:29:33.172Z,56.50
2018-02-20T21:32:00.659Z,58.85
2018-02-20T21:34:28.897Z,56.80
2018-02-20T21:36:56.451Z,51.60
2018-02-20T21:39:23.933Z,49.58
2018-02-20T21:41:51.399Z,56.03
2018-02-20T21:44:18.886Z,48.67
2018-02-20T21:46:46.345Z,50.72
2018-02-20T21:49:13.826Z,48.45
2018-02-20T21:51:41.331Z,51.40
2018-02-20T21:54:08.793Z,53.10
2018-02-20T21:56:37.034Z,53.87
2018-02-20T21:59:04.515Z,52.38
2018-02-20T22:01:31.979Z,51.55
2018-02-20T22:03:59.498Z,54.08
2018-02-20T22:06:26.992Z,52.58
2018-02-20T22:08:55.217Z,56.55
2018-02-20T22:11:22.689Z,49.90
2018-02-20T22:16:41.270Z,53.72
2018-02-20T22:19:08.755Z,56.15
2018-02-20T22:21:36.212Z,51.10
2018-02-20T22:24:03.691Z,53.95
2018-02-20T22:26:31.171Z,50.10
2018-02-20T22:28:58.655Z,53.70
2018-02-20T22:31:26.159Z,48.90
2018-02-20T22:33:53.622Z,48.60
2018-02-20T22:36:21.098Z,49.45
2018-02-20T22:38:48.610Z,47.42
2018-02-20T22:41:16.075Z,48.00
2018-02-20T22:43:44.314Z,45.72
2018-02-20T22:46:11.795Z,56.28
2018-02-20T22:48:39.275Z,48.45
2018-02-20T22:51:06.770Z,46.55
2018-02-20T22:53:34.242Z,49.17
2018-02-20T22:56:01.704Z,47.78
2018-02-20T22:58:29.193Z,41.60
2018-02-20T23:00:56.715Z,44.15
2018-02-20T23:03:24.202Z,46.50
2018-02-20T23:05:52.488Z,46.05
2018-02-20T23:08:20.014Z,46.60
2018-02-20T23:10:47.488Z,48.22
2018-02-20T23:13:14.965Z,50.47
2018-02-20T23:15:42.422Z,45.80
2018-02-20T23:18:09.895Z,48.33
2018-02-20T23:20:37.410Z,49.08
2018-02-20T23:23:04.930Z,48.50
2018-02-20T23:25:32.417Z,43.20
2018-02-20T23:27:59.908Z,51.17
2018-02-20T23:30:27.387Z,46.13
2018-02-20T23:32:54.883Z,45.15
2018-02-20T23:35:22.380Z,50.67
2018-02-20T23:37:49.850Z,46.08
2018-02-20T23:40:17.396Z,48.53
2018-02-20T23:42:44.902Z,45.85
2018-02-20T23:45:12.419Z,44.15
2018-02-20T23:47:39.971Z,43.83
2018-02-20T23:50:07.805Z,45.33
2018-02-20T23:52:40.961Z,44.53
2018-02-20T23:55:08.512Z,47.85
2018-02-20T23:57:36.010Z,49.65
